AAL2370 MKJP-KMIA
Flight info
| Callsign | AAL2370 |
|---|---|
| Flight time | N/A |
| Altitude | 40000 |
| Route | DCT ALTIB UM779 ZEUSS VIICE2 |
| Aircraft | B738/M-SBDE3FGHRWXY/LB1 |
Departure
| Time | 2026-04-30 15:08 |
|---|---|
| Airport | Norman Manley International Airport (MKJP) |
Arrival
| Time | N/A |
|---|---|
| Airport | Miami International Airport (KMIA) |
| Time | Latitude | Longitude | Altitude | Speed | Heading |
|---|---|---|---|---|---|
| 2026-04-30 14:42 | 17.93608 | -76.77964 | 25 ft | 0 kts | 290° |
| 2026-04-30 15:00 | 17.93600 | -76.77944 | 29 ft | 3 kts | 290° |
| 2026-04-30 15:01 | 17.93588 | -76.77907 | 24 ft | 3 kts | 263° |
| 2026-04-30 15:01 | 17.93594 | -76.77891 | 30 ft | 3 kts | 212° |
| 2026-04-30 15:01 | 17.93619 | -76.77880 | 29 ft | 0 kts | 203° |
| 2026-04-30 15:03 | 17.93615 | -76.77882 | 26 ft | 3 kts | 202° |
| 2026-04-30 15:04 | 17.93538 | -76.77915 | 24 ft | 7 kts | 202° |
| 2026-04-30 15:04 | 17.93400 | -76.77900 | 27 ft | 9 kts | 113° |
| 2026-04-30 15:05 | 17.93321 | -76.77736 | 26 ft | 9 kts | 159° |
| 2026-04-30 15:06 | 17.93289 | -76.77739 | 26 ft | 0 kts | 202° |
| 2026-04-30 15:06 | 17.93258 | -76.77753 | 27 ft | 9 kts | 202° |
| 2026-04-30 15:07 | 17.93201 | -76.77795 | 27 ft | 3 kts | 259° |
| 2026-04-30 15:07 | 17.93233 | -76.77896 | 27 ft | 31 kts | 292° |
| 2026-04-30 15:08 | 17.93779 | -76.79309 | 172 ft | 153 kts | 291° |
| 2026-04-30 15:08 | 17.95217 | -76.82618 | 2432 ft | 160 kts | 298° |
| 2026-04-30 15:09 | 17.96179 | -76.84696 | 4119 ft | 166 kts | 298° |
| 2026-04-30 15:09 | 17.97268 | -76.87046 | 5809 ft | 180 kts | 293° |
| 2026-04-30 15:10 | 17.98078 | -76.89316 | 7891 ft | 163 kts | 290° |
| 2026-04-30 15:11 | 18.00799 | -76.94169 | 10869 ft | 215 kts | 330° |
| 2026-04-30 15:11 | 18.04195 | -76.94838 | 11371 ft | 286 kts | 351° |
| 2026-04-30 15:12 | 18.10840 | -76.96071 | 13161 ft | 339 kts | 346° |
| 2026-04-30 15:13 | 18.15462 | -76.97239 | 15064 ft | 346 kts | 344° |
| 2026-04-30 15:14 | 18.24980 | -76.99977 | 18578 ft | 364 kts | 343° |
| 2026-04-30 15:14 | 18.32347 | -77.02182 | 20975 ft | 373 kts | 343° |
| 2026-04-30 15:16 | 18.45091 | -77.06017 | 24476 ft | 391 kts | 342° |
| 2026-04-30 15:17 | 18.55793 | -77.09244 | 26714 ft | 407 kts | 342° |
| 2026-04-30 15:18 | 18.69723 | -77.13451 | 29355 ft | 425 kts | 341° |
| 2026-04-30 15:19 | 18.78360 | -77.16063 | 30677 ft | 435 kts | 341° |